createdAt,value
2022-11-05T13:06:41.786Z,19.97
2022-11-05T13:09:17.614Z,19.91
2022-11-05T13:11:57.307Z,19.87
2022-11-05T13:14:42.257Z,19.83
2022-11-05T13:17:16.877Z,19.79
2022-11-05T13:19:48.928Z,19.76
2022-11-05T13:22:38.405Z,19.75
2022-11-05T13:25:13.854Z,19.73
2022-11-05T13:27:48.666Z,19.70
2022-11-05T13:30:20.634Z,19.71
2022-11-05T13:32:58.247Z,19.74
2022-11-05T13:35:29.754Z,19.71
2022-11-05T13:38:20.526Z,19.71
2022-11-05T13:40:56.547Z,19.72
2022-11-05T13:43:42.123Z,19.72
2022-11-05T13:46:08.354Z,19.75
2022-11-05T13:48:59.301Z,19.73
2022-11-05T13:51:43.757Z,19.73
2022-11-05T13:54:36.960Z,19.71
2022-11-05T13:57:31.373Z,19.72
2022-11-05T14:00:12.810Z,19.69
2022-11-05T14:02:45.182Z,19.66
2022-11-05T14:05:37.011Z,19.63
2022-11-05T14:08:21.348Z,19.57
2022-11-05T14:11:02.047Z,19.54
2022-11-05T14:13:44.469Z,19.55
2022-11-05T14:16:25.552Z,19.56
2022-11-05T14:19:20.154Z,19.54
2022-11-05T14:21:50.663Z,19.53
2022-11-05T14:24:22.944Z,19.54
2022-11-05T14:27:12.472Z,19.50
2022-11-05T14:29:46.914Z,19.49
2022-11-05T14:32:44.033Z,19.47
2022-11-05T14:35:16.400Z,19.45
2022-11-05T14:37:42.620Z,19.42
2022-11-05T14:40:36.193Z,19.41
2022-11-05T14:43:07.468Z,19.40
2022-11-05T14:45:52.402Z,19.41
2022-11-05T14:48:42.909Z,19.43
2022-11-05T14:51:37.071Z,19.43
2022-11-05T14:54:22.425Z,19.45
2022-11-05T14:56:56.328Z,19.44
2022-11-05T14:59:31.359Z,19.42
2022-11-05T15:02:00.713Z,19.41
2022-11-05T15:04:40.485Z,19.41
2022-11-05T15:07:06.710Z,19.38
2022-11-05T15:09:58.834Z,19.37
2022-11-05T15:12:47.918Z,19.38
2022-11-05T15:15:23.995Z,19.40
2022-11-05T15:17:57.893Z,19.43
2022-11-05T15:20:35.872Z,19.47
2022-11-05T15:23:10.559Z,19.49
2022-11-05T15:25:52.767Z,19.52
2022-11-05T15:28:42.078Z,19.54
2022-11-05T15:31:14.426Z,19.55
2022-11-05T15:33:42.408Z,19.56
2022-11-05T15:36:28.176Z,19.56
2022-11-05T15:39:27.381Z,19.55
2022-11-05T15:41:42.893Z,19.51
2022-11-05T15:44:24.324Z,19.50
2022-11-05T15:47:08.252Z,19.51
2022-11-05T15:49:34.743Z,19.52
2022-11-05T15:52:01.077Z,19.51
2022-11-05T15:54:31.252Z,19.50
2022-11-05T15:56:59.413Z,19.51
2022-11-05T15:59:28.897Z,19.51
2022-11-05T16:02:02.996Z,19.50
2022-11-05T16:04:31.956Z,19.50
2022-11-05T16:07:05.887Z,19.48
2022-11-05T16:09:35.673Z,19.48
2022-11-05T16:12:35.600Z,19.82
2022-11-05T16:15:07.994Z,20.16
2022-11-05T16:17:51.590Z,20.41
2022-11-05T16:20:19.497Z,20.62
2022-11-05T16:23:00.765Z,20.78
2022-11-05T16:25:37.969Z,20.91
2022-11-05T16:28:25.826Z,21.04
2022-11-05T16:30:57.607Z,21.12
2022-11-05T16:33:27.177Z,21.19
2022-11-05T16:35:53.493Z,21.23
2022-11-05T16:38:20.342Z,21.29
2022-11-05T16:40:46.666Z,21.33
2022-11-05T16:43:24.470Z,21.36
2022-11-05T16:45:55.810Z,21.37
2022-11-05T16:48:22.770Z,21.39
2022-11-05T16:50:49.079Z,21.40
2022-11-05T16:53:15.655Z,21.39
2022-11-05T16:55:44.758Z,21.40
2022-11-05T16:58:22.787Z,21.38
2022-11-05T17:00:51.107Z,21.35
2022-11-05T17:03:17.803Z,21.31
2022-11-05T17:05:44.533Z,21.28
2022-11-05T17:08:11.413Z,21.23
2022-11-05T17:10:38.332Z,21.21
2022-11-05T17:13:04.657Z,21.19
2022-11-05T17:15:35.437Z,21.16
2022-11-05T17:18:03.494Z,21.13
2022-11-05T17:20:41.864Z,21.10
2022-11-05T17:23:11.564Z,21.06
2022-11-05T17:25:39.893Z,21.03
2022-11-05T17:28:06.340Z,21.01
2022-11-05T17:30:32.920Z,20.97
2022-11-05T17:32:59.449Z,20.93
2022-11-05T17:35:26.721Z,20.91
2022-11-05T17:37:53.113Z,20.89
2022-11-05T17:40:22.369Z,20.86
2022-11-05T17:42:49.542Z,20.82
2022-11-05T17:45:15.863Z,20.79
2022-11-05T17:47:42.616Z,20.76
2022-11-05T17:50:11.483Z,20.74
2022-11-05T17:52:38.133Z,20.72
2022-11-05T17:55:08.460Z,20.70
2022-11-05T17:57:34.760Z,20.68
2022-11-05T18:00:01.069Z,20.67
2022-11-05T18:02:29.410Z,20.63
2022-11-05T18:04:55.908Z,20.60
2022-11-05T18:07:22.213Z,20.58
2022-11-05T18:09:48.512Z,20.56
2022-11-05T18:12:14.832Z,20.54
2022-11-05T18:14:41.154Z,20.51
2022-11-05T18:17:07.490Z,20.48
2022-11-05T18:19:33.933Z,20.45
2022-11-05T18:22:00.225Z,20.43
2022-11-05T18:24:26.551Z,20.41
2022-11-05T18:26:53.429Z,20.39
2022-11-05T18:29:19.782Z,20.36
2022-11-05T18:31:46.325Z,20.34
2022-11-05T18:34:12.824Z,20.30
2022-11-05T18:36:39.248Z,20.27
2022-11-05T18:39:06.802Z,20.24
2022-11-05T18:41:33.133Z,20.22
2022-11-05T18:44:00.820Z,20.21
2022-11-05T18:46:55.764Z,20.19
2022-11-05T18:49:14.972Z,20.17
2022-11-05T18:51:41.285Z,20.15
2022-11-05T18:54:08.501Z,20.13
2022-11-05T18:56:35.617Z,20.11
2022-11-05T18:59:29.940Z,20.12
2022-11-05T19:01:48.584Z,20.09
2022-11-05T19:04:15.106Z,20.09
2022-11-05T19:06:42.594Z,20.08
2022-11-05T19:09:11.827Z,20.09
2022-11-05T19:11:39.418Z,20.07
2022-11-05T19:14:05.714Z,20.10
2022-11-05T19:16:32.566Z,20.12
2022-11-05T19:19:01.326Z,20.13
2022-11-05T19:21:28.549Z,20.15
2022-11-05T19:23:57.306Z,20.17
2022-11-05T19:26:28.662Z,20.20
2022-11-05T19:28:57.381Z,20.24
2022-11-05T19:31:23.732Z,20.26
2022-11-05T19:33:51.972Z,20.30
2022-11-05T19:36:20.540Z,20.32
2022-11-05T19:38:49.536Z,20.37
2022-11-05T19:41:18.265Z,20.41
2022-11-05T19:43:45.506Z,20.46
2022-11-05T19:46:15.125Z,20.51
2022-11-05T19:48:42.013Z,20.55
2022-11-05T19:51:10.561Z,20.58
2022-11-05T19:53:38.450Z,20.58
2022-11-05T19:56:08.437Z,20.59
2022-11-05T19:58:35.214Z,20.61
2022-11-05T20:01:01.951Z,20.62
2022-11-05T20:03:28.349Z,20.62
2022-11-05T20:05:54.727Z,20.63
2022-11-05T20:08:21.035Z,20.63
2022-11-05T20:10:47.383Z,20.64
2022-11-05T20:13:19.655Z,20.63
2022-11-05T20:15:46.573Z,20.61
2022-11-05T20:18:13.257Z,20.59
2022-11-05T20:20:39.930Z,20.56
2022-11-05T20:23:06.274Z,20.54
2022-11-05T20:25:32.819Z,20.54
2022-11-05T20:27:59.137Z,20.54
2022-11-05T20:30:25.451Z,20.52
2022-11-05T20:32:56.153Z,20.50
2022-11-05T20:35:23.669Z,20.48
2022-11-05T20:37:53.921Z,20.44
2022-11-05T20:40:20.732Z,20.41
2022-11-05T20:42:47.048Z,20.38
2022-11-05T20:45:13.586Z,20.37
2022-11-05T20:47:39.965Z,20.31
2022-11-05T20:50:07.128Z,20.28
2022-11-05T20:52:33.410Z,20.26
2022-11-05T20:55:01.048Z,20.23
2022-11-05T20:57:27.354Z,20.20
2022-11-05T20:59:53.753Z,20.18
2022-11-05T21:02:20.200Z,20.13
2022-11-05T21:04:47.454Z,20.11
2022-11-05T21:07:13.761Z,20.07
2022-11-05T21:09:40.062Z,20.05
2022-11-05T21:12:12.477Z,20.00
2022-11-05T21:14:40.574Z,19.97
2022-11-05T21:17:08.981Z,19.94
2022-11-05T21:19:35.867Z,19.91
2022-11-05T21:22:04.557Z,19.88
2022-11-05T21:24:32.613Z,19.84
2022-11-05T21:26:59.294Z,19.80
2022-11-05T21:29:25.974Z,19.78
2022-11-05T21:31:52.863Z,19.74
2022-11-05T21:34:19.790Z,19.72
2022-11-05T21:36:47.055Z,19.70
2022-11-05T21:39:13.991Z,19.66
2022-11-05T21:41:40.453Z,19.65
2022-11-05T21:44:06.745Z,19.61
2022-11-05T21:46:33.110Z,19.58
2022-11-05T21:48:59.444Z,19.56
2022-11-05T21:51:44.108Z,19.54
2022-11-05T21:54:29.868Z,19.50
2022-11-05T21:57:15.057Z,19.47
2022-11-05T21:59:55.090Z,19.45
2022-11-05T22:02:23.614Z,19.42
2022-11-05T22:04:52.281Z,19.41
2022-11-05T22:07:21.951Z,19.38
2022-11-05T22:09:48.449Z,19.35
2022-11-05T22:12:15.550Z,19.33
2022-11-05T22:14:41.963Z,19.31
2022-11-05T22:17:09.401Z,19.27
2022-11-05T22:19:35.956Z,19.27
2022-11-05T22:22:04.325Z,19.26
2022-11-05T22:24:31.803Z,19.23
2022-11-05T22:27:04.751Z,19.21
2022-11-05T22:29:31.596Z,19.18
2022-11-05T22:31:58.024Z,19.17
2022-11-05T22:34:25.588Z,19.15
2022-11-05T22:36:52.220Z,19.14
2022-11-05T22:39:18.655Z,19.12
2022-11-05T22:41:45.118Z,19.10
2022-11-05T22:44:13.980Z,19.07
2022-11-05T22:46:41.053Z,19.06
2022-11-05T22:49:07.649Z,19.04
2022-11-05T22:51:36.157Z,19.01
2022-11-05T22:54:02.859Z,19.00
2022-11-05T22:56:32.518Z,18.98
2022-11-05T22:58:59.503Z,18.97
2022-11-05T23:01:26.170Z,18.93
2022-11-05T23:03:53.942Z,18.92
2022-11-05T23:06:40.348Z,18.90
2022-11-05T23:09:49.780Z,18.88
2022-11-05T23:12:30.324Z,18.86
2022-11-05T23:14:58.929Z,18.84
2022-11-05T23:17:45.175Z,18.84
2022-11-05T23:20:39.084Z,18.81
2022-11-05T23:23:30.996Z,18.79
2022-11-05T23:26:20.799Z,18.78
2022-11-05T23:28:47.169Z,18.77
2022-11-05T23:31:32.217Z,18.76
2022-11-05T23:33:58.522Z,18.72
2022-11-05T23:36:43.251Z,18.72
2022-11-05T23:39:09.555Z,18.71
2022-11-05T23:41:54.568Z,18.68
2022-11-05T23:44:39.307Z,18.67
2022-11-05T23:47:24.061Z,18.65
2022-11-05T23:49:50.369Z,18.63
2022-11-05T23:52:16.677Z,18.61
2022-11-05T23:54:43.100Z,18.59
2022-11-05T23:57:09.964Z,18.59
2022-11-05T23:59:36.314Z,18.57
